createdAt,value
2023-07-11T00:01:34.210Z,9.70
2023-07-11T00:04:02.849Z,9.57
2023-07-11T00:06:31.455Z,9.87
2023-07-11T00:08:59.721Z,8.70
2023-07-11T00:11:28.193Z,9.13
2023-07-11T00:14:00.734Z,9.00
2023-07-11T00:16:29.202Z,9.03
2023-07-11T00:18:57.456Z,9.07
2023-07-11T00:21:25.838Z,8.90
2023-07-11T00:23:54.186Z,8.63
2023-07-11T00:26:22.587Z,9.37
2023-07-11T00:28:50.885Z,9.00
2023-07-11T00:31:21.749Z,8.30
2023-07-11T00:33:50.096Z,8.40
2023-07-11T00:36:18.458Z,7.83
2023-07-11T00:38:46.842Z,8.27
2023-07-11T00:41:15.105Z,8.57
2023-07-11T00:43:43.356Z,9.73
2023-07-11T00:46:16.387Z,9.30
2023-07-11T00:48:49.832Z,9.33
2023-07-11T00:51:22.259Z,8.90
2023-07-11T00:53:51.662Z,8.53
2023-07-11T00:56:25.854Z,8.50
2023-07-11T00:58:55.766Z,8.80
2023-07-11T01:01:24.671Z,9.43
2023-07-11T01:03:57.010Z,8.67
2023-07-11T01:06:29.171Z,8.17
2023-07-11T01:08:59.704Z,7.77
2023-07-11T01:11:30.421Z,8.50
2023-07-11T01:13:59.201Z,8.90
2023-07-11T01:16:28.708Z,8.70
2023-07-11T01:18:58.457Z,9.50
2023-07-11T01:21:28.197Z,9.40
2023-07-11T01:23:56.569Z,8.90
2023-07-11T01:26:24.989Z,10.30
2023-07-11T01:28:53.255Z,8.70
2023-07-11T01:31:21.543Z,9.40
2023-07-11T01:33:49.902Z,8.13
2023-07-11T01:36:18.556Z,9.00
2023-07-11T01:38:48.301Z,8.23
2023-07-11T01:41:16.606Z,8.47
2023-07-11T01:43:45.084Z,8.63
2023-07-11T01:46:13.670Z,7.80
2023-07-11T01:48:41.929Z,7.60
2023-07-11T01:51:10.221Z,8.03
2023-07-11T01:53:38.523Z,8.10
2023-07-11T01:56:08.693Z,7.73
2023-07-11T01:58:39.426Z,7.73
2023-07-11T02:01:09.919Z,7.90
2023-07-11T02:03:38.278Z,8.17
2023-07-11T02:06:06.994Z,8.57
2023-07-11T02:08:35.838Z,9.07
2023-07-11T02:11:04.105Z,9.00
2023-07-11T02:13:33.969Z,8.77
2023-07-11T02:16:03.049Z,8.43
2023-07-11T02:18:31.998Z,8.50
2023-07-11T02:21:00.640Z,8.73
2023-07-11T02:23:29.538Z,9.27
2023-07-11T02:25:58.098Z,9.23
2023-07-11T02:28:26.560Z,8.30
2023-07-11T02:30:57.811Z,8.00
2023-07-11T02:33:26.693Z,8.27
2023-07-11T02:35:55.340Z,8.33
2023-07-11T02:38:23.973Z,8.07
2023-07-11T02:40:52.682Z,7.67
2023-07-11T02:43:22.883Z,8.20
2023-07-11T02:45:52.814Z,8.27
2023-07-11T02:48:23.299Z,7.90
2023-07-11T02:50:51.999Z,7.87
2023-07-11T02:53:20.838Z,7.27
2023-07-11T02:55:52.264Z,8.60
2023-07-11T02:58:20.718Z,8.03
2023-07-11T03:00:50.037Z,8.07
2023-07-11T03:03:18.457Z,7.73
2023-07-11T03:05:49.141Z,7.70
2023-07-11T03:08:17.960Z,7.70
2023-07-11T03:10:46.704Z,7.40
2023-07-11T03:13:15.709Z,6.87
2023-07-11T03:15:44.135Z,7.90
2023-07-11T03:18:13.077Z,7.40
2023-07-11T03:20:41.961Z,7.43
2023-07-11T03:23:15.136Z,7.93
2023-07-11T03:25:44.138Z,7.93
2023-07-11T03:28:12.430Z,8.17
2023-07-11T03:30:40.749Z,7.87
2023-07-11T03:33:09.007Z,7.67
2023-07-11T03:35:37.809Z,7.80
2023-07-11T03:38:06.771Z,8.10
2023-07-11T03:40:36.634Z,8.70
2023-07-11T03:43:04.967Z,7.40
2023-07-11T03:45:33.467Z,8.03
2023-07-11T03:48:01.799Z,7.87
2023-07-11T03:50:30.207Z,7.33
2023-07-11T03:52:58.463Z,7.90
2023-07-11T03:55:26.943Z,6.90
2023-07-11T03:57:56.822Z,7.30
2023-07-11T04:00:25.153Z,7.33
2023-07-11T04:02:53.532Z,7.30
2023-07-11T04:05:21.888Z,7.00
2023-07-11T04:07:50.190Z,7.00
2023-07-11T04:10:18.708Z,7.97
2023-07-11T04:12:46.962Z,7.87
2023-07-11T04:15:16.814Z,7.60
2023-07-11T04:17:45.960Z,7.57
2023-07-11T04:20:14.699Z,7.20
2023-07-11T04:22:43.083Z,8.07
2023-07-11T04:25:11.488Z,7.40
2023-07-11T04:27:39.969Z,7.13
2023-07-11T04:30:10.235Z,7.60
2023-07-11T04:32:41.257Z,8.70
2023-07-11T04:35:15.000Z,7.90
2023-07-11T04:37:43.621Z,8.20
2023-07-11T04:40:12.779Z,7.97
2023-07-11T04:42:41.150Z,8.00
2023-07-11T04:45:11.498Z,8.30
2023-07-11T04:47:41.321Z,8.55
2023-07-11T04:50:10.772Z,8.23
2023-07-11T04:52:39.349Z,8.35
2023-07-11T04:55:08.835Z,8.60
2023-07-11T04:57:37.233Z,8.50
2023-07-11T05:00:07.339Z,7.95
2023-07-11T05:02:36.693Z,8.57
2023-07-11T05:05:06.936Z,7.35
2023-07-11T05:07:35.432Z,7.43
2023-07-11T05:10:03.713Z,7.32
2023-07-11T05:12:31.987Z,7.18
2023-07-11T05:15:00.274Z,7.82
2023-07-11T05:17:28.746Z,7.70
2023-07-11T05:19:57.108Z,7.30
2023-07-11T05:22:27.642Z,7.68
2023-07-11T05:24:56.703Z,7.07
2023-07-11T05:27:26.387Z,8.23
2023-07-11T05:29:54.629Z,7.57
2023-07-11T05:32:22.972Z,7.70
2023-07-11T05:34:51.316Z,7.35
2023-07-11T05:37:19.745Z,7.78
2023-07-11T05:39:50.064Z,7.65
2023-07-11T05:42:18.339Z,8.10
2023-07-11T05:44:47.044Z,7.50
2023-07-11T05:47:15.372Z,7.43
2023-07-11T05:49:43.827Z,6.78
2023-07-11T05:52:12.123Z,7.20
2023-07-11T05:54:40.459Z,7.22
2023-07-11T05:57:10.389Z,7.10
2023-07-11T05:59:39.034Z,8.15
2023-07-11T06:02:08.289Z,7.18
2023-07-11T06:04:36.548Z,7.07
2023-07-11T06:07:05.192Z,7.22
2023-07-11T06:09:35.520Z,7.03
2023-07-11T06:12:04.039Z,7.63
2023-07-11T06:14:33.735Z,6.70
2023-07-11T06:17:02.050Z,7.13
2023-07-11T06:19:30.694Z,6.88
2023-07-11T06:21:59.386Z,7.75
2023-07-11T06:24:27.756Z,7.75
2023-07-11T06:26:56.554Z,8.25
2023-07-11T06:29:27.862Z,7.50
2023-07-11T06:31:59.296Z,8.15
2023-07-11T06:34:27.783Z,7.63
2023-07-11T06:36:58.280Z,7.60
2023-07-11T06:39:27.000Z,8.10
2023-07-11T06:41:55.463Z,7.80
2023-07-11T06:44:24.526Z,7.60
2023-07-11T06:46:53.058Z,8.15
2023-07-11T06:49:23.197Z,7.82
2023-07-11T06:51:52.052Z,7.75
2023-07-11T06:54:20.489Z,8.25
2023-07-11T06:56:48.968Z,7.68
2023-07-11T06:59:22.020Z,8.35
2023-07-11T07:01:51.318Z,7.82
2023-07-11T07:04:19.680Z,8.65
2023-07-11T07:06:50.300Z,8.63
2023-07-11T07:09:19.905Z,8.95
2023-07-11T07:11:48.363Z,8.93
2023-07-11T07:14:17.090Z,7.85
2023-07-11T07:16:45.642Z,8.95
2023-07-11T07:19:14.349Z,7.80
2023-07-11T07:21:42.644Z,7.85
2023-07-11T07:24:12.524Z,7.40
2023-07-11T07:26:42.779Z,7.78
2023-07-11T07:29:11.283Z,8.00
2023-07-11T07:31:39.932Z,7.25
2023-07-11T07:34:09.496Z,7.95
2023-07-11T07:36:38.097Z,8.10
2023-07-11T07:39:06.465Z,8.30
2023-07-11T07:41:36.209Z,9.32
2023-07-11T07:44:04.800Z,8.65
2023-07-11T07:46:33.080Z,7.80
2023-07-11T07:49:01.445Z,8.25
2023-07-11T07:51:29.754Z,8.30
2023-07-11T07:53:58.006Z,8.13
2023-07-11T07:56:26.782Z,8.75
2023-07-11T07:58:56.417Z,8.00
2023-07-11T08:01:25.068Z,9.38
2023-07-11T08:03:53.441Z,8.07
2023-07-11T08:06:21.845Z,7.80
2023-07-11T08:08:51.805Z,7.00
2023-07-11T08:11:22.702Z,7.45
2023-07-11T08:13:59.360Z,7.93
2023-07-11T08:16:33.519Z,8.50
2023-07-11T08:19:06.841Z,8.00
2023-07-11T08:21:36.398Z,8.20
2023-07-11T08:24:06.509Z,9.83
2023-07-11T08:26:35.204Z,8.47
2023-07-11T08:29:12.650Z,9.30
2023-07-11T08:31:50.193Z,9.67
2023-07-11T08:34:18.454Z,8.10
2023-07-11T08:36:48.282Z,8.80
2023-07-11T08:39:16.923Z,9.20
2023-07-11T08:41:47.933Z,9.77
2023-07-11T08:44:20.207Z,9.17
2023-07-11T08:46:57.719Z,8.33
2023-07-11T08:49:32.031Z,8.67
2023-07-11T08:52:03.839Z,8.93
2023-07-11T08:54:36.035Z,9.23
2023-07-11T08:57:05.097Z,9.50
2023-07-11T08:59:49.182Z,8.93
2023-07-11T09:02:31.252Z,9.33
2023-07-11T09:04:59.794Z,8.87
2023-07-11T09:07:38.186Z,8.87
2023-07-11T09:10:38.290Z,8.57
2023-07-11T09:13:32.014Z,8.50
2023-07-11T09:16:08.545Z,8.43
2023-07-11T09:18:47.875Z,8.87
2023-07-11T09:21:21.588Z,9.37
2023-07-11T09:24:05.720Z,8.43
2023-07-11T09:26:49.734Z,8.40
2023-07-11T09:29:19.582Z,8.10
2023-07-11T09:31:53.242Z,8.83
2023-07-11T09:34:28.452Z,8.80
2023-07-11T09:37:01.162Z,9.33
2023-07-11T09:39:36.131Z,9.57
2023-07-11T09:42:11.764Z,8.07
2023-07-11T09:44:40.058Z,8.80
2023-07-11T09:47:19.283Z,9.03
2023-07-11T09:49:50.679Z,8.43
2023-07-11T09:52:27.943Z,7.83
2023-07-11T09:55:07.730Z,8.80
2023-07-11T09:57:37.312Z,8.23
2023-07-11T10:02:48.231Z,8.43
2023-07-11T10:05:20.454Z,7.87
2023-07-11T10:08:00.256Z,8.67
2023-07-11T10:10:28.976Z,7.83
2023-07-11T10:12:57.773Z,7.90
2023-07-11T10:15:29.512Z,7.30
2023-07-11T10:17:58.524Z,8.03
2023-07-11T10:20:29.972Z,8.50
2023-07-11T10:23:06.842Z,7.33
2023-07-11T10:25:35.380Z,8.60
2023-07-11T10:28:09.667Z,8.17
2023-07-11T10:30:41.216Z,8.30
2023-07-11T10:33:22.660Z,8.60
2023-07-11T10:35:58.473Z,8.77
2023-07-11T10:38:31.089Z,7.80
2023-07-11T10:41:05.018Z,7.90
2023-07-11T10:43:39.058Z,6.90
2023-07-11T10:46:17.874Z,7.47
2023-07-11T10:48:51.982Z,7.50
2023-07-11T10:51:28.742Z,6.77
2023-07-11T10:54:06.283Z,7.60
2023-07-11T10:56:39.908Z,6.90
2023-07-11T10:59:13.541Z,7.70
2023-07-11T11:01:52.204Z,7.33
2023-07-11T11:04:36.428Z,7.13
2023-07-11T11:07:12.434Z,7.90
2023-07-11T11:09:45.590Z,6.40
2023-07-11T11:12:24.334Z,7.03
2023-07-11T11:14:57.039Z,7.33
2023-07-11T11:17:41.125Z,6.60
2023-07-11T11:20:17.818Z,6.50
2023-07-11T11:23:04.524Z,5.53
2023-07-11T11:25:40.059Z,5.47
2023-07-11T11:28:19.962Z,5.43
2023-07-11T11:30:58.668Z,5.67
2023-07-11T11:33:43.414Z,5.53
2023-07-11T11:36:19.636Z,5.93
2023-07-11T11:39:05.884Z,5.90
2023-07-11T11:41:38.606Z,5.33
2023-07-11T11:49:41.344Z,5.73
2023-07-11T11:52:11.884Z,5.90
2023-07-11T11:54:46.223Z,6.67
2023-07-11T11:57:23.028Z,7.03
2023-07-11T11:59:52.289Z,6.50
2023-07-11T12:02:30.460Z,7.17
2023-07-11T12:05:02.489Z,7.20
2023-07-11T12:07:39.047Z,7.50
2023-07-11T12:10:20.999Z,7.30
2023-07-11T12:13:18.351Z,8.03
2023-07-11T12:15:51.097Z,8.33
2023-07-11T12:18:46.155Z,8.60
2023-07-11T12:21:47.541Z,9.30
2023-07-11T12:24:41.916Z,8.90
2023-07-11T12:28:01.764Z,9.73
2023-07-11T12:30:44.167Z,9.83
2023-07-11T12:33:37.579Z,8.60
2023-07-11T12:36:36.533Z,9.07
2023-07-11T12:39:35.968Z,8.60
2023-07-11T12:42:11.990Z,9.47
2023-07-11T12:44:40.644Z,8.90
2023-07-11T12:47:15.767Z,8.97
2023-07-11T12:49:45.886Z,7.73
2023-07-11T12:52:17.150Z,8.40
2023-07-11T12:54:46.461Z,7.40
2023-07-11T12:57:16.802Z,7.87
2023-07-11T12:59:45.193Z,7.80
2023-07-11T13:02:17.362Z,8.40
2023-07-11T13:04:52.936Z,7.37
2023-07-11T13:07:25.374Z,8.70
2023-07-11T13:09:55.784Z,7.40
2023-07-11T13:12:27.801Z,7.90
2023-07-11T13:14:56.050Z,7.97
2023-07-11T13:17:27.540Z,8.53
2023-07-11T13:20:02.776Z,8.97
2023-07-11T13:22:31.536Z,9.13
2023-07-11T13:25:01.122Z,10.33
2023-07-11T13:27:32.982Z,10.73
2023-07-11T13:30:01.264Z,9.90
2023-07-11T13:32:31.627Z,9.57
2023-07-11T13:37:49.042Z,10.50
2023-07-11T13:40:36.691Z,10.03
2023-07-11T13:43:15.691Z,11.30
2023-07-11T13:45:44.022Z,10.20
2023-07-11T13:48:16.953Z,10.70
2023-07-11T13:50:45.579Z,9.23
2023-07-11T13:53:16.767Z,9.73
2023-07-11T13:55:52.186Z,9.83
2023-07-11T13:58:21.225Z,10.00
2023-07-11T14:00:52.495Z,9.87
2023-07-11T14:03:24.960Z,9.80
2023-07-11T14:05:58.358Z,10.00
2023-07-11T14:08:27.929Z,9.33
2023-07-11T14:10:56.235Z,9.07
2023-07-11T14:13:28.157Z,9.73
2023-07-11T14:15:58.670Z,10.80
2023-07-11T14:18:28.435Z,10.90
2023-07-11T14:20:56.687Z,10.53
2023-07-11T14:23:26.829Z,10.47
2023-07-11T14:25:56.829Z,11.27
2023-07-11T14:28:25.834Z,10.73
2023-07-11T14:30:57.543Z,10.67
2023-07-11T14:33:30.482Z,12.00
2023-07-11T14:35:59.502Z,12.17
2023-07-11T14:38:29.235Z,11.70
2023-07-11T14:40:58.274Z,10.90
2023-07-11T14:43:27.975Z,11.43
2023-07-11T14:45:56.638Z,11.40
2023-07-11T14:48:27.702Z,11.30
2023-07-11T14:51:02.157Z,11.07
2023-07-11T14:53:37.277Z,11.93
2023-07-11T14:58:40.501Z,14.53
2023-07-11T15:01:13.547Z,13.30
2023-07-11T15:16:27.381Z,11.60
2023-07-11T15:18:55.900Z,11.93
2023-07-11T15:21:25.715Z,12.77
2023-07-11T15:23:53.981Z,14.60
2023-07-11T15:26:25.659Z,12.70
2023-07-11T15:28:54.662Z,11.90
2023-07-11T15:31:23.408Z,11.47
2023-07-11T15:33:51.960Z,10.17
2023-07-11T15:36:20.737Z,12.57
2023-07-11T15:38:51.257Z,11.27
2023-07-11T15:41:20.117Z,11.83
2023-07-11T15:43:48.725Z,11.27
2023-07-11T15:46:23.015Z,12.70
2023-07-11T15:48:54.327Z,12.33
2023-07-11T15:51:22.914Z,14.70
2023-07-11T15:53:53.083Z,15.03
2023-07-11T15:56:21.604Z,16.27
2023-07-11T15:58:50.016Z,16.40
2023-07-11T16:01:18.476Z,15.00
2023-07-11T16:03:46.781Z,16.53
2023-07-11T16:06:19.296Z,14.20
2023-07-11T16:08:47.601Z,15.03
2023-07-11T16:11:18.863Z,12.60
2023-07-11T16:13:47.510Z,13.97
2023-07-11T16:16:19.062Z,13.00
2023-07-11T16:18:47.723Z,13.80
2023-07-11T16:21:17.800Z,14.40
2023-07-11T16:23:46.110Z,13.73
2023-07-11T16:26:21.359Z,12.10
2023-07-11T16:28:51.275Z,11.40
2023-07-11T16:31:19.981Z,12.50
2023-07-11T16:33:48.430Z,12.50
2023-07-11T16:36:18.638Z,13.00
2023-07-11T16:38:46.886Z,14.00
2023-07-11T16:41:15.369Z,14.10
2023-07-11T16:43:45.232Z,14.53
2023-07-11T16:46:19.566Z,12.57
2023-07-11T16:48:48.073Z,13.03
2023-07-11T16:51:23.399Z,12.53
2023-07-11T16:53:51.867Z,13.00
2023-07-11T16:56:20.190Z,13.17
2023-07-11T16:58:49.920Z,13.27
2023-07-11T17:01:21.517Z,13.17
2023-07-11T17:03:50.619Z,12.63
2023-07-11T17:06:26.081Z,14.80
2023-07-11T17:08:54.884Z,12.73
2023-07-11T17:11:23.379Z,14.13
2023-07-11T17:13:53.187Z,12.63
2023-07-11T17:16:25.569Z,12.63
2023-07-11T17:18:54.183Z,12.37
2023-07-11T17:21:22.594Z,11.73
2023-07-11T17:23:51.049Z,11.43
2023-07-11T17:26:19.536Z,11.60
2023-07-11T17:28:47.827Z,11.13
2023-07-11T17:31:17.919Z,11.57
2023-07-11T17:33:46.705Z,12.67
2023-07-11T17:36:17.203Z,11.50
2023-07-11T17:38:47.132Z,11.03
2023-07-11T17:41:15.952Z,11.10
2023-07-11T17:43:46.614Z,12.27
2023-07-11T17:46:45.989Z,11.20
2023-07-11T17:49:11.576Z,11.70
2023-07-11T17:51:40.579Z,11.10
2023-07-11T17:54:09.044Z,11.37
2023-07-11T17:56:57.082Z,11.73
2023-07-11T17:59:27.279Z,11.40
2023-07-11T18:01:57.384Z,14.50
2023-07-11T18:04:25.885Z,13.43
2023-07-11T18:06:54.346Z,14.20
2023-07-11T18:09:22.672Z,14.33
2023-07-11T18:11:51.183Z,11.50
2023-07-11T18:14:19.447Z,10.43
2023-07-11T18:16:47.753Z,9.77
2023-07-11T18:19:17.433Z,9.40
2023-07-11T18:21:46.006Z,10.20
2023-07-11T18:24:14.391Z,9.67
2023-07-11T18:26:42.728Z,10.53
2023-07-11T18:29:11.637Z,9.37
2023-07-11T18:31:40.124Z,9.03
2023-07-11T18:34:08.552Z,9.90
2023-07-11T18:36:38.318Z,10.40
2023-07-11T18:39:06.645Z,9.30
2023-07-11T18:41:35.028Z,10.40
2023-07-11T18:44:03.429Z,9.23
2023-07-11T18:46:31.760Z,11.27
2023-07-11T18:49:00.131Z,9.17
2023-07-11T18:51:29.073Z,8.97
2023-07-11T18:53:59.036Z,8.53
2023-07-11T18:56:28.661Z,8.37
2023-07-11T18:58:56.976Z,9.40
2023-07-11T19:01:25.283Z,10.10
2023-07-11T19:03:53.855Z,9.97
2023-07-11T19:06:22.409Z,9.10
2023-07-11T19:08:50.665Z,8.90
2023-07-11T19:11:20.392Z,8.30
2023-07-11T19:13:48.866Z,9.07
2023-07-11T19:16:20.544Z,9.03
2023-07-11T19:18:49.170Z,9.53
2023-07-11T19:21:17.541Z,9.27
2023-07-11T19:23:46.400Z,9.43
2023-07-11T19:26:16.837Z,10.80
2023-07-11T19:28:46.892Z,9.80
2023-07-11T19:31:16.930Z,10.93
2023-07-11T19:33:47.381Z,10.10
2023-07-11T19:36:21.160Z,10.67
2023-07-11T19:38:49.729Z,10.87
2023-07-11T19:41:20.559Z,10.80
2023-07-11T19:43:50.389Z,10.90
2023-07-11T19:46:22.265Z,11.70
2023-07-11T19:48:51.836Z,10.60
2023-07-11T19:51:20.143Z,11.70
2023-07-11T19:53:48.383Z,12.60
2023-07-11T19:56:25.123Z,12.57
2023-07-11T19:58:55.618Z,12.37
2023-07-11T20:01:23.977Z,13.03
2023-07-11T20:03:53.175Z,15.07
2023-07-11T20:06:24.541Z,15.27
2023-07-11T20:08:53.152Z,14.23
2023-07-11T20:11:21.688Z,13.80
2023-07-11T20:13:50.025Z,14.90
2023-07-11T20:16:22.830Z,14.57
2023-07-11T20:18:53.582Z,14.73
2023-07-11T20:21:24.327Z,16.17
2023-07-11T20:23:54.372Z,14.53
2023-07-11T20:26:24.205Z,17.40
2023-07-11T20:28:54.227Z,16.20
2023-07-11T20:31:25.025Z,14.60
2023-07-11T20:33:53.589Z,11.67
2023-07-11T20:36:23.795Z,13.07
2023-07-11T20:38:52.829Z,11.77
2023-07-11T20:41:21.430Z,12.07
2023-07-11T20:43:50.868Z,11.70
2023-07-11T20:46:21.671Z,12.60
2023-07-11T20:48:52.549Z,10.73
2023-07-11T20:51:22.155Z,11.63
2023-07-11T20:53:50.611Z,11.50
2023-07-11T20:56:20.335Z,11.73
2023-07-11T20:58:49.544Z,10.57
2023-07-11T21:01:20.067Z,10.87
2023-07-11T21:03:49.266Z,10.70
2023-07-11T21:06:30.518Z,10.37
2023-07-11T21:08:58.845Z,11.20
2023-07-11T21:11:27.228Z,11.03
2023-07-11T21:13:55.704Z,10.50
2023-07-11T21:16:29.075Z,11.13
2023-07-11T21:19:00.652Z,11.63
2023-07-11T21:21:30.843Z,11.10
2023-07-11T21:23:59.307Z,11.30
2023-07-11T21:26:28.493Z,11.30
2023-07-11T21:28:57.967Z,10.87
2023-07-11T21:31:27.829Z,10.40
2023-07-11T21:33:57.088Z,9.90
2023-07-11T21:36:26.474Z,9.97
2023-07-11T21:38:56.547Z,9.40
2023-07-11T21:41:25.029Z,9.73
2023-07-11T21:43:54.265Z,9.40
2023-07-11T21:46:30.434Z,10.33
2023-07-11T21:48:59.580Z,9.70
2023-07-11T21:51:29.024Z,10.10
2023-07-11T21:54:00.063Z,10.73
2023-07-11T21:56:30.954Z,10.70
2023-07-11T21:59:02.310Z,10.90
2023-07-11T22:01:31.928Z,10.47
2023-07-11T22:04:02.000Z,10.43
2023-07-11T22:06:32.131Z,11.93
2023-07-11T22:09:02.420Z,10.27
2023-07-11T22:11:30.959Z,10.93
2023-07-11T22:13:59.359Z,9.70
2023-07-11T22:16:30.804Z,11.13
2023-07-11T22:18:59.583Z,10.97
2023-07-11T22:21:28.639Z,10.80
2023-07-11T22:23:59.178Z,10.40
2023-07-11T22:26:32.083Z,11.33
2023-07-11T22:29:02.656Z,10.07
2023-07-11T22:31:31.920Z,9.83
2023-07-11T22:34:00.506Z,10.90
2023-07-11T22:36:28.869Z,10.37
2023-07-11T22:38:57.210Z,10.00
2023-07-11T22:41:25.642Z,9.90
2023-07-11T22:43:55.397Z,10.83
2023-07-11T22:46:23.813Z,10.43
2023-07-11T22:48:52.544Z,10.80
2023-07-11T22:51:20.906Z,12.43
2023-07-11T22:53:49.960Z,12.50
2023-07-11T22:56:20.552Z,11.67
2023-07-11T22:58:49.003Z,10.00
2023-07-11T23:01:20.576Z,10.60
2023-07-11T23:03:49.091Z,11.37
2023-07-11T23:06:21.171Z,11.27
2023-07-11T23:08:50.428Z,11.70
2023-07-11T23:11:19.222Z,11.13
2023-07-11T23:13:48.155Z,10.33
2023-07-11T23:16:28.523Z,9.90
2023-07-11T23:18:58.442Z,10.33
2023-07-11T23:21:26.875Z,10.57
2023-07-11T23:23:55.831Z,10.30
2023-07-11T23:26:24.743Z,10.87
2023-07-11T23:28:53.818Z,10.50
2023-07-11T23:31:23.639Z,10.13
2023-07-11T23:33:51.964Z,10.87
2023-07-11T23:36:22.750Z,10.20
2023-07-11T23:38:53.280Z,10.40
2023-07-11T23:41:22.452Z,11.10
2023-07-11T23:43:53.222Z,11.13
2023-07-11T23:46:28.233Z,11.10
2023-07-11T23:48:57.233Z,11.80
2023-07-11T23:51:27.020Z,10.87
2023-07-11T23:53:55.764Z,11.30
2023-07-11T23:56:26.663Z,11.37
2023-07-11T23:58:55.321Z,11.53
